Hoxie, Texas
Current Conditions -  °F | °C
As of 12:58 AM on Friday 28 Nov 2014 (Local Time) from KGRK Reporting Station
Clear Clear  
Wind Chill: 37°   Ceiling: Unl
Heat Index: 40°   Visibility: 10mi
Dew Point: 32°   Wind: 5mph
Humidity: 72%   Direction: 160°SSE
Pressure: 30.34"   Gusts: NA
Location:  30.5793°N, 97.5096°W
Report Text: KGRK 280658Z AUTO 16004KT 10SM CLR 05/00 A3034 RMK AO2 SLP277 T00461001
Loading
Personal Weather Stations






























Interactive Weather Map New forecast layout! Learn more

10-Day Weather Forecast

Advertisements
Track Severe Weather on mobile